Flight Track Log - Related Links

Times and Time Zones

All times are in EST time to prevent confusion due to time zone crossing. See the GJS6221 flight status page for this flight to view local times or setup timezone preferences in your user account.

Time Position Orientation Groundspeed Altitude Reporting Facility
EST Latitude Longitude Course Direction KTS MPH feet Rate Location/Type
Fri 03:03:28 PM 40.8167 -73.9000 360° North 179 206 1,900  Level New York TRACON
Fri 03:04:28 PM 40.8667 -73.9000 360° North 231 266 4,100 1,900 Climbing New York TRACON
Fri 03:05:28 PM 40.8667 -73.8167 90° East 309 356 5,700 900 Climbing New York TRACON
Fri 03:06:28 PM 40.7833 -73.8000 171° South 277 319 5,900 150 Climbing New York TRACON
Fri 03:07:28 PM 40.7167 -73.7833 169° South 275 316 6,000 104 Climbing New York TRACON
Fri 03:08:23 PM 40.6500 -73.7833 180° South 257 296 6,100 526 Climbing New York TRACON
Fri 03:09:22 PM 40.5833 -73.8167 201° Southwest 250 288 7,000 -13 Climbing New York TRACON
Fri 03:23:43 PM 39.7131 -74.5286 216° Southwest 257 296 5,900 -72 Descending Washington Center
Fri 03:24:00 PM 39.6520 -74.5647 218° Southwest  Level FlightAware Approximate
Fri 03:24:44 PM 39.6572 -74.5836 217° Southwest 262 302 5,900  Level Washington Center
Fri 03:25:00 PM 39.5924 -74.6243 218° Southwest  Level FlightAware Approximate
Fri 03:25:42 PM 39.5992 -74.6381 216° Southwest 262 302 6,800  Level Washington Center
Fri 03:26:00 PM 39.5327 -74.6840 218° Southwest  Level FlightAware Approximate
Fri 03:26:42 PM 39.5392 -74.6900 214° Southwest 262 302 9,700  Level Washington Center
Fri 03:27:00 PM 39.4725 -74.7425 216° Southwest  Level FlightAware Approximate
Fri 03:27:43 PM 39.4814 -74.7419 215° Southwest 262 302 12,100  Level Washington Center
Fri 03:28:00 PM 39.4175 -74.7939 216° Southwest  Level FlightAware Approximate
Fri 03:28:44 PM 39.4131 -74.8019 214° Southwest 276 318 13,600  Level Washington Center
Fri 03:29:44 PM 39.3361 -74.8669 213° Southwest 309 356 15,200 1,881 Climbing Washington Center
Fri 03:30:42 PM 39.2553 -74.9350 213° Southwest 335 386 17,300 1,983 Climbing Washington Center
Fri 03:31:42 PM 39.1786 -75.0025 214° Southwest 341 392 19,100 1,934 Climbing Washington Center
Fri 03:32:43 PM 39.1017 -75.0675 213° Southwest 346 398 21,200 1,983 Climbing Washington Center
Fri 03:33:43 PM 39.0250 -75.1319 213° Southwest 346 398 23,100 1,686 Climbing Washington Center
Fri 03:34:44 PM 38.9481 -75.1967 213° Southwest 341 392 24,600 1,311 Climbing Washington Center
Fri 03:35:42 PM 38.8692 -75.2664 215° Southwest 341 392 25,700 1,160 Climbing Washington Center
Fri 03:36:43 PM 38.7900 -75.3306 212° Southwest 346 398 26,900 1,180 Climbing Washington Center
Fri 03:37:44 PM 38.7089 -75.3975 213° Southwest 346 398 28,100 1,109 Climbing Washington Center
Fri 03:38:42 PM 38.6275 -75.4667 214° Southwest 352 405 29,100 1,008 Climbing Washington Center
Fri 03:39:43 PM 38.5464 -75.5333 213° Southwest 352 405 30,100 992 Climbing Washington Center
Fri 03:40:43 PM 38.4672 -75.6022 214° Southwest 352 405 31,100 857 Climbing Washington Center
Fri 03:41:42 PM 38.3878 -75.6686 213° Southwest 352 405 31,800 706 Climbing Washington Center
Fri 03:42:42 PM 38.3044 -75.7319 211° Southwest 352 405 32,500 694 Climbing Washington Center
Fri 03:43:43 PM 38.2250 -75.7953 212° Southwest 347 399 33,200 738 Climbing Washington Center
Fri 03:44:44 PM 38.1436 -75.8636 213° Southwest 347 399 34,000 397 Climbing Washington Center
Fri 03:45:44 PM 38.0683 -75.9242 212° Southwest 347 399 34,000  Level Washington Center
Fri 03:46:42 PM 37.9953 -75.9844 213° Southwest 330 380 34,000  Level Washington Center
Fri 03:47:42 PM 37.9200 -76.0472 213° Southwest 325 374 34,000  Level Washington Center
Fri 03:48:41 PM 37.8447 -76.1072 212° Southwest 325 374 34,000  Level Washington Center
Fri 03:49:42 PM 37.7672 -76.1697 213° Southwest 325 374 34,000  Level Washington Center
Fri 03:50:43 PM 37.6917 -76.2322 213° Southwest 330 380 34,000  Level Washington Center
Fri 03:51:44 PM 37.6122 -76.2969 213° Southwest 330 380 34,000  Level Washington Center
Fri 03:52:44 PM 37.5347 -76.3592 212° Southwest 330 380 34,000  Level Washington Center
Fri 03:53:42 PM 37.4569 -76.4211 212° Southwest 330 380 34,000  Level Washington Center
Fri 03:54:42 PM 37.3772 -76.4856 213° Southwest 330 380 34,000  Level Washington Center
Fri 03:55:44 PM 37.2997 -76.5475 212° Southwest 330 380 34,000  Level Washington Center
Fri 03:56:44 PM 37.2219 -76.6092 212° Southwest 335 386 34,000  Level Washington Center
Fri 03:57:42 PM 37.1442 -76.6706 212° Southwest 330 380 34,000  Level Washington Center
Fri 03:58:42 PM 37.0686 -76.7319 213° Southwest 330 380 34,000  Level Washington Center
Fri 03:59:43 PM 36.9908 -76.7933 212° Southwest 330 380 34,000  Level Washington Center
Fri 04:00:44 PM 36.9131 -76.8569 213° Southwest 330 380 34,000  Level Washington Center
Fri 04:01:44 PM 36.8331 -76.9181 211° Southwest 330 380 34,000  Level Washington Center
Fri 04:02:42 PM 36.7553 -76.9789 212° Southwest 335 386 34,000  Level Washington Center
Fri 04:03:42 PM 36.6753 -77.0422 212° Southwest 335 386 34,000  Level Washington Center
Fri 04:04:43 PM 36.5972 -77.1081 214° Southwest 340 391 34,000  Level Washington Center
Fri 04:05:42 PM 36.5192 -77.1736 214° Southwest 345 397 34,000  Level Washington Center
Fri 04:06:42 PM 36.4411 -77.2417 215° Southwest 345 397 34,000  Level Washington Center
Fri 04:07:43 PM 36.3608 -77.3072 213° Southwest 345 397 34,000  Level Washington Center
Fri 04:08:43 PM 36.2825 -77.3725 214° Southwest 350 403 34,000  Level Washington Center
Fri 04:09:42 PM 36.2003 -77.4375 213° Southwest 350 403 34,000  Level Washington Center
Fri 04:10:43 PM 36.1242 -77.5025 215° Southwest 350 403 34,000  Level Washington Center
Fri 04:11:44 PM 36.0436 -77.5725 215° Southwest 350 403 34,000  Level Washington Center
Fri 04:12:42 PM 35.9614 -77.6372 213° Southwest 350 403 34,000  Level Washington Center
Fri 04:13:43 PM 35.8808 -77.7044 214° Southwest 350 403 34,000  Level Washington Center
Fri 04:14:42 PM 35.7961 -77.7714 213° Southwest 355 409 34,000  Level Washington Center
Fri 04:15:43 PM 35.7156 -77.8381 214° Southwest 355 409 34,000  Level Washington Center
Fri 04:16:44 PM 35.6308 -77.9047 213° Southwest 355 409 34,000  Level Washington Center
Fri 04:17:44 PM 35.5461 -77.9714 213° Southwest 355 409 34,000  Level Washington Center
Fri 04:18:43 PM 35.4633 -78.0403 214° Southwest 355 409 34,000  Level Washington Center
Fri 04:19:44 PM 35.3786 -78.1064 212° Southwest 355 409 34,000  Level Washington Center
Fri 04:20:42 PM 35.2914 -78.1775 214° Southwest 355 409 34,000  Level Washington Center
Fri 04:21:43 PM 35.2064 -78.2458 213° Southwest 360 414 34,000  Level Washington Center
Fri 04:22:44 PM 35.1194 -78.3167 214° Southwest 371 427 34,000  Level Washington Center
Fri 04:23:42 PM 35.0450 -78.3750 213° Southwest 371 427 34,000  Level Washington Center
Fri 04:27:07 PM 34.7361 -78.6181 213° Southwest 383 441 34,000  Level Jacksonville Center
Fri 04:28:07 PM 34.6486 -78.6856 212° Southwest 378 435 34,000  Level Jacksonville Center
Fri 04:29:07 PM 34.5614 -78.7553 213° Southwest 387 445 34,000  Level Jacksonville Center
Fri 04:30:07 PM 34.4842 -78.8219 215° Southwest 387 445 34,000  Level Jacksonville Center
Fri 04:31:07 PM 34.4008 -78.8914 215° Southwest 377 434 34,000  Level Jacksonville Center
Fri 04:32:07 PM 34.3219 -78.9706 220° Southwest 377 434 34,000  Level Jacksonville Center
Fri 04:33:07 PM 34.2453 -79.0492 220° Southwest 371 427 34,000  Level Jacksonville Center
Fri 04:34:07 PM 34.1706 -79.1306 222° Southwest 366 421 34,000  Level Jacksonville Center
Fri 04:35:07 PM 34.0956 -79.2114 222° Southwest 372 428 34,000  Level Jacksonville Center
Fri 04:36:07 PM 34.0167 -79.2922 220° Southwest 372 428 34,000  Level Jacksonville Center
Fri 04:37:07 PM 33.9397 -79.3731 221° Southwest 372 428 34,000  Level Jacksonville Center
Fri 04:38:07 PM 33.8544 -79.4564 219° Southwest 372 428 34,000  Level Jacksonville Center
Fri 04:39:07 PM 33.7772 -79.5369 221° Southwest 372 428 34,000  Level Jacksonville Center
Fri 04:40:07 PM 33.6981 -79.6200 221° Southwest 372 428 34,000 -350 Level Jacksonville Center
Fri 04:41:07 PM 33.6186 -79.7003 220° Southwest 372 428 33,300 -1,100 Descending Jacksonville Center
Fri 04:42:07 PM 33.5394 -79.7828 221° Southwest 372 428 31,800 -1,500 Descending Jacksonville Center
Fri 04:43:07 PM 33.4383 -79.8336 203° Southwest 377 434 30,300 -1,500 Descending Jacksonville Center
Fri 04:44:07 PM 33.3372 -79.8817 202° Southwest 388 447 28,800 -1,500 Descending Jacksonville Center
Fri 04:45:07 PM 33.2422 -79.9297 203° Southwest 388 447 27,300 -1,650 Descending Jacksonville Center
Fri 04:46:07 PM 33.1711 -80.0114 224° Southwest 376 433 25,500 -1,750 Descending Jacksonville Center
Fri 04:47:07 PM 33.0978 -80.0931 223° Southwest 362 417 23,800 -1,700 Descending Jacksonville Center
Fri 04:48:07 PM 33.0308 -80.1769 226° Southwest 368 423 22,100 -1,700 Descending Jacksonville Center
Fri 04:49:07 PM 32.9594 -80.2608 225° Southwest 368 423 20,400 -1,600 Descending Jacksonville Center
Fri 04:50:07 PM 32.8922 -80.3347 223° Southwest 365 420 18,900 -1,300 Descending Jacksonville Center
Fri 04:51:07 PM 32.8269 -80.4106 224° Southwest 358 412 17,800 -1,300 Descending Jacksonville Center
Fri 04:52:07 PM 32.7617 -80.4842 223° Southwest 343 395 16,300 -900 Descending Jacksonville Center
Fri 04:53:07 PM 32.6961 -80.5597 224° Southwest 338 389 16,000 -600 Descending Jacksonville Center
Fri 04:54:07 PM 32.6308 -80.6331 223° Southwest 333 383 15,100 -1,350 Descending Jacksonville Center
Fri 04:55:07 PM 32.5653 -80.7086 224° Southwest 333 383 13,300 -1,700 Descending Jacksonville Center
Fri 04:56:07 PM 32.5058 -80.7742 223° Southwest 317 365 11,700 -1,550 Descending Jacksonville Center
Fri 04:57:07 PM 32.4525 -80.8369 225° Southwest 294 338 10,200 -1,550 Descending Jacksonville Center
Fri 04:58:07 PM 32.3992 -80.8972 224° Southwest 269 310 8,600 -1,600 Descending Jacksonville Center
Fri 04:59:07 PM 32.3481 -80.9572 225° Southwest 263 303 7,000 -1,650 Descending Jacksonville Center
Fri 05:00:07 PM 32.2925 -81.0222 225° Southwest 263 303 5,300 -1,500 Descending Jacksonville Center
Fri 05:01:07 PM 32.2622 -81.0917 243° Southwest 245 282 4,000 -1,200 Descending Jacksonville Center
Fri 05:02:07 PM 32.2361 -81.1536 244° Southwest 239 275 2,900 -1,000 Descending Jacksonville Center
Fri 05:03:07 PM 32.2097 -81.2206 245° Southwest 234 269 2,000 -600 Descending Jacksonville Center
Fri 05:04:07 PM 32.1856 -81.2772 243° Southwest 200 230 1,700 -300 Descending Jacksonville Center
Fri 05:06:00 PM 32.1276 -81.2021 270° West  Level Estimated
Fri 05:13:00 PM 32.1276 -81.2021 270° West  Level Estimated
Fri 05:14:00 PM 32.1276 -81.2021 270° West  Level Estimated
Fri 05:15:00 PM 32.1276 -81.2021 270° West  Level Estimated

Login

Don't have an account? Register now (free) for customized features, flight alerts, and more!